sensor_id;sensor_type;location;lat;lon;timestamp;P1;durP1;ratioP1;P2;durP2;ratioP2
30133;SDS011;16946;49.984;10.672;2023-04-24T00:00:08;2.20;;;1.30;;
30133;SDS011;16946;49.984;10.672;2023-04-24T00:00:39;2.22;;;1.30;;
30133;SDS011;16946;49.984;10.672;2023-04-24T00:01:10;2.03;;;1.40;;
30133;SDS011;16946;49.984;10.672;2023-04-24T00:01:42;2.80;;;1.45;;
30133;SDS011;16946;49.984;10.672;2023-04-24T00:02:13;2.77;;;1.60;;
30133;SDS011;16946;49.984;10.672;2023-04-24T00:02:44;2.30;;;1.63;;
30133;SDS011;16946;49.984;10.672;2023-04-24T00:03:16;7.55;;;5.22;;
30133;SDS011;16946;49.984;10.672;2023-04-24T00:03:51;8.68;;;5.97;;
30133;SDS011;16946;49.984;10.672;2023-04-24T00:04:21;8.03;;;5.93;;
30133;SDS011;16946;49.984;10.672;2023-04-24T00:04:55;7.03;;;4.65;;
30133;SDS011;16946;49.984;10.672;2023-04-24T00:05:26;6.80;;;4.83;;
30133;SDS011;16946;49.984;10.672;2023-04-24T00:05:57;4.27;;;3.60;;
30133;SDS011;16946;49.984;10.672;2023-04-24T00:06:29;3.88;;;2.80;;
30133;SDS011;16946;49.984;10.672;2023-04-24T00:07:03;3.60;;;2.08;;
30133;SDS011;16946;49.984;10.672;2023-04-24T00:07:34;2.83;;;1.80;;
30133;SDS011;16946;49.984;10.672;2023-04-24T00:08:04;2.85;;;1.60;;
30133;SDS011;16946;49.984;10.672;2023-04-24T00:08:36;2.70;;;1.70;;
30133;SDS011;16946;49.984;10.672;2023-04-24T00:09:06;2.83;;;1.50;;
30133;SDS011;16946;49.984;10.672;2023-04-24T00:09:37;1.70;;;1.50;;
30133;SDS011;16946;49.984;10.672;2023-04-24T00:10:08;1.63;;;1.47;;
30133;SDS011;16946;49.984;10.672;2023-04-24T00:10:38;2.60;;;1.80;;
30133;SDS011;16946;49.984;10.672;2023-04-24T00:11:09;2.87;;;2.10;;
30133;SDS011;16946;49.984;10.672;2023-04-24T00:11:40;3.07;;;1.70;;
30133;SDS011;16946;49.984;10.672;2023-04-24T00:12:11;2.55;;;1.45;;
30133;SDS011;16946;49.984;10.672;2023-04-24T00:12:41;1.67;;;1.50;;
30133;SDS011;16946;49.984;10.672;2023-04-24T00:13:12;2.03;;;1.40;;
30133;SDS011;16946;49.984;10.672;2023-04-24T00:13:42;1.97;;;1.20;;
30133;SDS011;16946;49.984;10.672;2023-04-24T00:14:13;1.40;;;1.20;;
30133;SDS011;16946;49.984;10.672;2023-04-24T00:14:44;2.43;;;1.30;;
30133;SDS011;16946;49.984;10.672;2023-04-24T00:15:14;1.90;;;1.30;;
30133;SDS011;16946;49.984;10.672;2023-04-24T00:15:45;2.17;;;1.40;;
30133;SDS011;16946;49.984;10.672;2023-04-24T00:16:15;1.53;;;1.20;;
30133;SDS011;16946;49.984;10.672;2023-04-24T00:16:46;1.43;;;1.00;;
30133;SDS011;16946;49.984;10.672;2023-04-24T00:17:16;1.37;;;1.23;;
30133;SDS011;16946;49.984;10.672;2023-04-24T00:17:49;1.48;;;1.08;;
30133;SDS011;16946;49.984;10.672;2023-04-24T00:18:20;2.30;;;1.10;;
30133;SDS011;16946;49.984;10.672;2023-04-24T00:18:50;2.10;;;1.20;;
30133;SDS011;16946;49.984;10.672;2023-04-24T00:19:22;1.85;;;1.00;;
30133;SDS011;16946;49.984;10.672;2023-04-24T00:19:53;1.30;;;1.17;;
30133;SDS011;16946;49.984;10.672;2023-04-24T00:20:28;2.40;;;1.20;;
30133;SDS011;16946;49.984;10.672;2023-04-24T00:20:59;2.53;;;1.20;;
30133;SDS011;16946;49.984;10.672;2023-04-24T00:21:30;3.20;;;1.37;;
30133;SDS011;16946;49.984;10.672;2023-04-24T00:22:02;1.80;;;1.25;;
30133;SDS011;16946;49.984;10.672;2023-04-24T00:22:33;1.37;;;1.00;;
30133;SDS011;16946;49.984;10.672;2023-04-24T00:23:04;1.10;;;1.00;;
30133;SDS011;16946;49.984;10.672;2023-04-24T00:23:34;2.23;;;1.07;;
30133;SDS011;16946;49.984;10.672;2023-04-24T00:24:05;3.20;;;1.03;;
30133;SDS011;16946;49.984;10.672;2023-04-24T00:24:36;1.40;;;1.20;;
30133;SDS011;16946;49.984;10.672;2023-04-24T00:25:06;1.70;;;1.00;;
30133;SDS011;16946;49.984;10.672;2023-04-24T00:25:37;2.03;;;1.10;;
30133;SDS011;16946;49.984;10.672;2023-04-24T00:26:08;1.67;;;1.02;;
30133;SDS011;16946;49.984;10.672;2023-04-24T00:26:39;3.50;;;1.20;;
30133;SDS011;16946;49.984;10.672;2023-04-24T00:27:10;1.73;;;0.93;;
30133;SDS011;16946;49.984;10.672;2023-04-24T00:27:40;2.03;;;1.10;;
30133;SDS011;16946;49.984;10.672;2023-04-24T00:28:11;1.53;;;0.90;;
30133;SDS011;16946;49.984;10.672;2023-04-24T00:28:41;2.53;;;1.23;;
30133;SDS011;16946;49.984;10.672;2023-04-24T00:29:12;3.50;;;1.13;;
30133;SDS011;16946;49.984;10.672;2023-04-24T00:29:42;1.20;;;0.90;;
30133;SDS011;16946;49.984;10.672;2023-04-24T00:30:13;1.17;;;0.90;;
30133;SDS011;16946;49.984;10.672;2023-04-24T00:30:44;1.80;;;1.20;;
30133;SDS011;16946;49.984;10.672;2023-04-24T00:31:14;1.97;;;1.00;;
30133;SDS011;16946;49.984;10.672;2023-04-24T00:31:45;2.63;;;1.17;;
30133;SDS011;16946;49.984;10.672;2023-04-24T00:32:15;3.53;;;1.20;;
30133;SDS011;16946;49.984;10.672;2023-04-24T00:32:47;1.98;;;1.00;;
30133;SDS011;16946;49.984;10.672;2023-04-24T00:33:18;1.63;;;0.90;;
30133;SDS011;16946;49.984;10.672;2023-04-24T00:33:48;3.73;;;1.30;;
30133;SDS011;16946;49.984;10.672;2023-04-24T00:34:19;1.83;;;0.87;;
30133;SDS011;16946;49.984;10.672;2023-04-24T00:34:50;1.63;;;1.00;;
30133;SDS011;16946;49.984;10.672;2023-04-24T00:35:20;1.50;;;1.07;;
30133;SDS011;16946;49.984;10.672;2023-04-24T00:35:51;2.40;;;1.03;;
30133;SDS011;16946;49.984;10.672;2023-04-24T00:36:21;1.67;;;0.97;;
30133;SDS011;16946;49.984;10.672;2023-04-24T00:36:52;2.23;;;0.90;;
30133;SDS011;16946;49.984;10.672;2023-04-24T00:37:22;1.50;;;0.97;;
30133;SDS011;16946;49.984;10.672;2023-04-24T00:37:53;2.60;;;1.17;;
30133;SDS011;16946;49.984;10.672;2023-04-24T00:38:23;1.30;;;0.93;;
30133;SDS011;16946;49.984;10.672;2023-04-24T00:38:54;2.83;;;1.03;;
30133;SDS011;16946;49.984;10.672;2023-04-24T00:39:25;1.13;;;0.90;;
30133;SDS011;16946;49.984;10.672;2023-04-24T00:39:55;2.97;;;1.10;;
30133;SDS011;16946;49.984;10.672;2023-04-24T00:40:26;2.53;;;1.30;;
30133;SDS011;16946;49.984;10.672;2023-04-24T00:40:58;1.50;;;1.00;;
30133;SDS011;16946;49.984;10.672;2023-04-24T00:41:28;1.07;;;0.90;;
30133;SDS011;16946;49.984;10.672;2023-04-24T00:42:00;2.47;;;1.00;;
30133;SDS011;16946;49.984;10.672;2023-04-24T00:42:31;1.45;;;1.05;;
30133;SDS011;16946;49.984;10.672;2023-04-24T00:43:03;2.38;;;1.02;;
30133;SDS011;16946;49.984;10.672;2023-04-24T00:43:33;1.47;;;0.90;;
30133;SDS011;16946;49.984;10.672;2023-04-24T00:44:04;1.40;;;1.17;;
30133;SDS011;16946;49.984;10.672;2023-04-24T00:44:35;1.60;;;0.90;;
30133;SDS011;16946;49.984;10.672;2023-04-24T00:45:06;1.53;;;0.90;;
30133;SDS011;16946;49.984;10.672;2023-04-24T00:45:37;1.70;;;1.10;;
30133;SDS011;16946;49.984;10.672;2023-04-24T00:46:08;1.53;;;0.90;;
30133;SDS011;16946;49.984;10.672;2023-04-24T00:46:38;2.57;;;1.13;;
30133;SDS011;16946;49.984;10.672;2023-04-24T00:47:09;1.17;;;1.00;;
30133;SDS011;16946;49.984;10.672;2023-04-24T00:47:41;1.50;;;1.20;;
30133;SDS011;16946;49.984;10.672;2023-04-24T00:48:12;2.00;;;1.30;;
30133;SDS011;16946;49.984;10.672;2023-04-24T00:48:43;2.93;;;0.80;;
30133;SDS011;16946;49.984;10.672;2023-04-24T00:49:14;0.93;;;0.75;;
30133;SDS011;16946;49.984;10.672;2023-04-24T00:49:45;3.20;;;1.17;;
30133;SDS011;16946;49.984;10.672;2023-04-24T00:50:15;1.40;;;1.00;;
30133;SDS011;16946;49.984;10.672;2023-04-24T00:50:46;1.27;;;0.90;;
30133;SDS011;16946;49.984;10.672;2023-04-24T00:51:17;2.83;;;1.00;;
30133;SDS011;16946;49.984;10.672;2023-04-24T00:51:48;3.30;;;1.17;;
30133;SDS011;16946;49.984;10.672;2023-04-24T00:52:19;0.85;;;0.85;;
30133;SDS011;16946;49.984;10.672;2023-04-24T00:52:50;1.25;;;0.90;;
30133;SDS011;16946;49.984;10.672;2023-04-24T00:53:21;1.20;;;0.90;;
30133;SDS011;16946;49.984;10.672;2023-04-24T00:53:51;2.03;;;1.10;;
30133;SDS011;16946;49.984;10.672;2023-04-24T00:54:22;1.47;;;0.90;;
30133;SDS011;16946;49.984;10.672;2023-04-24T00:54:52;1.43;;;1.00;;
30133;SDS011;16946;49.984;10.672;2023-04-24T00:55:23;2.10;;;1.00;;
30133;SDS011;16946;49.984;10.672;2023-04-24T00:55:54;1.77;;;0.90;;
30133;SDS011;16946;49.984;10.672;2023-04-24T00:56:26;1.10;;;0.90;;
30133;SDS011;16946;49.984;10.672;2023-04-24T00:56:57;2.13;;;1.00;;
30133;SDS011;16946;49.984;10.672;2023-04-24T00:57:28;1.60;;;1.00;;
30133;SDS011;16946;49.984;10.672;2023-04-24T00:57:58;1.93;;;0.93;;
30133;SDS011;16946;49.984;10.672;2023-04-24T00:58:29;1.77;;;0.90;;
30133;SDS011;16946;49.984;10.672;2023-04-24T00:59:01;2.45;;;1.15;;
30133;SDS011;16946;49.984;10.672;2023-04-24T00:59:31;1.10;;;1.00;;
30133;SDS011;16946;49.984;10.672;2023-04-24T01:00:03;1.67;;;0.93;;
30133;SDS011;16946;49.984;10.672;2023-04-24T01:00:35;1.38;;;0.80;;
30133;SDS011;16946;49.984;10.672;2023-04-24T01:01:06;2.10;;;1.10;;
30133;SDS011;16946;49.984;10.672;2023-04-24T01:01:36;3.27;;;1.00;;
30133;SDS011;16946;49.984;10.672;2023-04-24T01:02:11;1.02;;;0.90;;
30133;SDS011;16946;49.984;10.672;2023-04-24T01:02:43;3.25;;;1.00;;
30133;SDS011;16946;49.984;10.672;2023-04-24T01:03:15;0.82;;;0.80;;
30133;SDS011;16946;49.984;10.672;2023-04-24T01:03:46;2.00;;;1.00;;
30133;SDS011;16946;49.984;10.672;2023-04-24T01:04:18;1.15;;;0.90;;
30133;SDS011;16946;49.984;10.672;2023-04-24T01:04:50;1.70;;;1.00;;
30133;SDS011;16946;49.984;10.672;2023-04-24T01:05:21;2.45;;;1.10;;
30133;SDS011;16946;49.984;10.672;2023-04-24T01:05:52;2.30;;;1.00;;
30133;SDS011;16946;49.984;10.672;2023-04-24T01:06:27;1.45;;;0.93;;
30133;SDS011;16946;49.984;10.672;2023-04-24T01:06:58;1.10;;;0.90;;
30133;SDS011;16946;49.984;10.672;2023-04-24T01:07:29;0.82;;;0.80;;
30133;SDS011;16946;49.984;10.672;2023-04-24T01:08:00;1.80;;;1.00;;
30133;SDS011;16946;49.984;10.672;2023-04-24T01:08:32;1.10;;;0.90;;
30133;SDS011;16946;49.984;10.672;2023-04-24T01:09:04;1.20;;;0.90;;
30133;SDS011;16946;49.984;10.672;2023-04-24T01:09:37;2.78;;;1.00;;
30133;SDS011;16946;49.984;10.672;2023-04-24T01:10:11;2.17;;;1.20;;
30133;SDS011;16946;49.984;10.672;2023-04-24T01:10:44;1.42;;;1.13;;
30133;SDS011;16946;49.984;10.672;2023-04-24T01:11:16;3.05;;;1.15;;
30133;SDS011;16946;49.984;10.672;2023-04-24T01:11:47;1.73;;;1.00;;
30133;SDS011;16946;49.984;10.672;2023-04-24T01:12:18;1.70;;;0.90;;
30133;SDS011;16946;49.984;10.672;2023-04-24T01:12:49;1.33;;;0.93;;
30133;SDS011;16946;49.984;10.672;2023-04-24T01:13:20;1.67;;;1.00;;
30133;SDS011;16946;49.984;10.672;2023-04-24T01:13:51;1.93;;;0.83;;
30133;SDS011;16946;49.984;10.672;2023-04-24T01:14:22;3.28;;;1.20;;
30133;SDS011;16946;49.984;10.672;2023-04-24T01:14:53;2.40;;;1.10;;
30133;SDS011;16946;49.984;10.672;2023-04-24T01:15:24;1.67;;;0.90;;
30133;SDS011;16946;49.984;10.672;2023-04-24T01:15:55;1.00;;;0.90;;
30133;SDS011;16946;49.984;10.672;2023-04-24T01:16:25;1.50;;;1.03;;
30133;SDS011;16946;49.984;10.672;2023-04-24T01:16:56;2.30;;;1.30;;
30133;SDS011;16946;49.984;10.672;2023-04-24T01:17:27;1.25;;;0.93;;
30133;SDS011;16946;49.984;10.672;2023-04-24T01:17:58;2.40;;;1.00;;
30133;SDS011;16946;49.984;10.672;2023-04-24T01:18:28;1.93;;;1.10;;
30133;SDS011;16946;49.984;10.672;2023-04-24T01:18:59;4.13;;;0.97;;
30133;SDS011;16946;49.984;10.672;2023-04-24T01:19:29;1.33;;;1.00;;
30133;SDS011;16946;49.984;10.672;2023-04-24T01:20:00;1.40;;;0.90;;
30133;SDS011;16946;49.984;10.672;2023-04-24T01:20:31;2.63;;;1.20;;
30133;SDS011;16946;49.984;10.672;2023-04-24T01:21:02;2.22;;;1.00;;
30133;SDS011;16946;49.984;10.672;2023-04-24T01:21:36;1.65;;;0.90;;
30133;SDS011;16946;49.984;10.672;2023-04-24T01:22:09;2.17;;;1.00;;
30133;SDS011;16946;49.984;10.672;2023-04-24T01:22:50;1.65;;;0.93;;
30133;SDS011;16946;49.984;10.672;2023-04-24T01:23:21;1.20;;;1.00;;
30133;SDS011;16946;49.984;10.672;2023-04-24T01:23:52;1.37;;;0.80;;
30133;SDS011;16946;49.984;10.672;2023-04-24T01:24:22;1.23;;;0.90;;
30133;SDS011;16946;49.984;10.672;2023-04-24T01:24:53;2.87;;;1.40;;
30133;SDS011;16946;49.984;10.672;2023-04-24T01:25:24;1.17;;;0.90;;
30133;SDS011;16946;49.984;10.672;2023-04-24T01:25:56;1.00;;;0.80;;
30133;SDS011;16946;49.984;10.672;2023-04-24T01:26:26;3.43;;;0.90;;
30133;SDS011;16946;49.984;10.672;2023-04-24T01:26:57;1.57;;;0.90;;
30133;SDS011;16946;49.984;10.672;2023-04-24T01:27:27;1.17;;;0.80;;
30133;SDS011;16946;49.984;10.672;2023-04-24T01:27:58;1.93;;;0.83;;
30133;SDS011;16946;49.984;10.672;2023-04-24T01:28:29;1.52;;;1.02;;
30133;SDS011;16946;49.984;10.672;2023-04-24T01:29:00;1.00;;;0.90;;
30133;SDS011;16946;49.984;10.672;2023-04-24T01:29:31;2.00;;;1.00;;
30133;SDS011;16946;49.984;10.672;2023-04-24T01:30:02;2.85;;;1.13;;
30133;SDS011;16946;49.984;10.672;2023-04-24T01:30:33;4.63;;;0.90;;
30133;SDS011;16946;49.984;10.672;2023-04-24T01:31:03;1.50;;;1.20;;
30133;SDS011;16946;49.984;10.672;2023-04-24T01:31:34;2.10;;;1.00;;
30133;SDS011;16946;49.984;10.672;2023-04-24T01:32:05;1.33;;;0.80;;
30133;SDS011;16946;49.984;10.672;2023-04-24T01:32:36;3.67;;;1.13;;
30133;SDS011;16946;49.984;10.672;2023-04-24T01:33:07;1.83;;;0.80;;
30133;SDS011;16946;49.984;10.672;2023-04-24T01:33:38;1.00;;;0.70;;
30133;SDS011;16946;49.984;10.672;2023-04-24T01:34:08;2.60;;;1.10;;
30133;SDS011;16946;49.984;10.672;2023-04-24T01:34:40;1.73;;;0.90;;
30133;SDS011;16946;49.984;10.672;2023-04-24T01:35:11;2.00;;;0.90;;
30133;SDS011;16946;49.984;10.672;2023-04-24T01:35:41;1.00;;;0.83;;
30133;SDS011;16946;49.984;10.672;2023-04-24T01:36:12;2.22;;;1.00;;
30133;SDS011;16946;49.984;10.672;2023-04-24T01:36:45;1.05;;;0.85;;
30133;SDS011;16946;49.984;10.672;2023-04-24T01:37:16;1.27;;;0.90;;
30133;SDS011;16946;49.984;10.672;2023-04-24T01:37:47;1.20;;;0.80;;
30133;SDS011;16946;49.984;10.672;2023-04-24T01:38:17;1.50;;;0.90;;
30133;SDS011;16946;49.984;10.672;2023-04-24T01:38:48;3.53;;;0.93;;
30133;SDS011;16946;49.984;10.672;2023-04-24T01:39:18;1.50;;;1.00;;
30133;SDS011;16946;49.984;10.672;2023-04-24T01:39:50;2.33;;;0.80;;
30133;SDS011;16946;49.984;10.672;2023-04-24T01:40:21;1.47;;;0.90;;
30133;SDS011;16946;49.984;10.672;2023-04-24T01:40:51;2.20;;;0.97;;
30133;SDS011;16946;49.984;10.672;2023-04-24T01:41:23;3.05;;;1.15;;
30133;SDS011;16946;49.984;10.672;2023-04-24T01:41:55;1.38;;;0.90;;
30133;SDS011;16946;49.984;10.672;2023-04-24T01:42:26;2.05;;;0.82;;
30133;SDS011;16946;49.984;10.672;2023-04-24T01:42:57;1.97;;;1.00;;
30133;SDS011;16946;49.984;10.672;2023-04-24T01:43:28;4.65;;;1.08;;
30133;SDS011;16946;49.984;10.672;2023-04-24T01:43:59;1.80;;;1.10;;
30133;SDS011;16946;49.984;10.672;2023-04-24T01:44:30;1.57;;;0.90;;
30133;SDS011;16946;49.984;10.672;2023-04-24T01:45:02;3.00;;;0.83;;
30133;SDS011;16946;49.984;10.672;2023-04-24T01:45:33;2.85;;;0.90;;
30133;SDS011;16946;49.984;10.672;2023-04-24T01:46:04;1.43;;;1.00;;
30133;SDS011;16946;49.984;10.672;2023-04-24T01:46:35;1.70;;;1.00;;
30133;SDS011;16946;49.984;10.672;2023-04-24T01:47:06;1.73;;;1.10;;
30133;SDS011;16946;49.984;10.672;2023-04-24T01:47:37;1.43;;;0.90;;
30133;SDS011;16946;49.984;10.672;2023-04-24T01:48:08;1.40;;;0.70;;
30133;SDS011;16946;49.984;10.672;2023-04-24T01:48:38;1.30;;;0.80;;
30133;SDS011;16946;49.984;10.672;2023-04-24T01:49:10;2.20;;;1.10;;
30133;SDS011;16946;49.984;10.672;2023-04-24T01:49:41;2.27;;;0.90;;
30133;SDS011;16946;49.984;10.672;2023-04-24T01:50:11;1.70;;;0.97;;
30133;SDS011;16946;49.984;10.672;2023-04-24T01:50:42;1.43;;;0.83;;
30133;SDS011;16946;49.984;10.672;2023-04-24T01:51:12;2.23;;;1.00;;
30133;SDS011;16946;49.984;10.672;2023-04-24T01:51:43;2.60;;;0.93;;
30133;SDS011;16946;49.984;10.672;2023-04-24T01:52:14;2.17;;;1.10;;
30133;SDS011;16946;49.984;10.672;2023-04-24T01:52:45;2.70;;;0.70;;
30133;SDS011;16946;49.984;10.672;2023-04-24T01:53:15;1.73;;;0.90;;
30133;SDS011;16946;49.984;10.672;2023-04-24T01:53:46;2.37;;;1.20;;
30133;SDS011;16946;49.984;10.672;2023-04-24T01:54:16;1.77;;;0.93;;
30133;SDS011;16946;49.984;10.672;2023-04-24T01:54:47;1.63;;;0.90;;
30133;SDS011;16946;49.984;10.672;2023-04-24T01:55:17;1.57;;;0.77;;
30133;SDS011;16946;49.984;10.672;2023-04-24T01:55:48;1.40;;;0.90;;
30133;SDS011;16946;49.984;10.672;2023-04-24T01:56:21;2.17;;;1.00;;
30133;SDS011;16946;49.984;10.672;2023-04-24T01:56:52;2.35;;;0.90;;
30133;SDS011;16946;49.984;10.672;2023-04-24T01:57:22;1.50;;;0.90;;
30133;SDS011;16946;49.984;10.672;2023-04-24T01:57:53;1.93;;;0.90;;
30133;SDS011;16946;49.984;10.672;2023-04-24T01:58:26;2.28;;;1.13;;
30133;SDS011;16946;49.984;10.672;2023-04-24T01:58:57;1.80;;;1.10;;
30133;SDS011;16946;49.984;10.672;2023-04-24T01:59:28;1.77;;;1.10;;
30133;SDS011;16946;49.984;10.672;2023-04-24T01:59:59;1.63;;;0.90;;
30133;SDS011;16946;49.984;10.672;2023-04-24T02:00:29;1.00;;;0.80;;
30133;SDS011;16946;49.984;10.672;2023-04-24T02:01:00;2.23;;;1.10;;
30133;SDS011;16946;49.984;10.672;2023-04-24T02:01:34;1.65;;;0.90;;
30133;SDS011;16946;49.984;10.672;2023-04-24T02:02:08;2.90;;;1.05;;
30133;SDS011;16946;49.984;10.672;2023-04-24T02:02:39;2.23;;;1.00;;
30133;SDS011;16946;49.984;10.672;2023-04-24T02:03:10;2.65;;;1.00;;
30133;SDS011;16946;49.984;10.672;2023-04-24T02:03:41;1.13;;;0.97;;
30133;SDS011;16946;49.984;10.672;2023-04-24T02:04:12;2.37;;;0.90;;
30133;SDS011;16946;49.984;10.672;2023-04-24T02:04:44;1.30;;;0.90;;
30133;SDS011;16946;49.984;10.672;2023-04-24T02:05:14;1.33;;;1.00;;
30133;SDS011;16946;49.984;10.672;2023-04-24T02:05:45;1.57;;;0.80;;
30133;SDS011;16946;49.984;10.672;2023-04-24T02:06:15;1.17;;;0.80;;
30133;SDS011;16946;49.984;10.672;2023-04-24T02:06:46;0.80;;;0.73;;
30133;SDS011;16946;49.984;10.672;2023-04-24T02:07:17;1.27;;;0.80;;
30133;SDS011;16946;49.984;10.672;2023-04-24T02:07:47;1.93;;;1.20;;
30133;SDS011;16946;49.984;10.672;2023-04-24T02:08:18;1.10;;;0.80;;
30133;SDS011;16946;49.984;10.672;2023-04-24T02:08:48;1.67;;;0.90;;
30133;SDS011;16946;49.984;10.672;2023-04-24T02:09:19;1.20;;;0.80;;
30133;SDS011;16946;49.984;10.672;2023-04-24T02:09:49;1.77;;;1.00;;
30133;SDS011;16946;49.984;10.672;2023-04-24T02:10:20;1.93;;;0.93;;
30133;SDS011;16946;49.984;10.672;2023-04-24T02:10:51;2.30;;;1.00;;
30133;SDS011;16946;49.984;10.672;2023-04-24T02:11:21;2.10;;;0.90;;
30133;SDS011;16946;49.984;10.672;2023-04-24T02:11:52;2.03;;;0.83;;
30133;SDS011;16946;49.984;10.672;2023-04-24T02:12:22;1.57;;;0.90;;
30133;SDS011;16946;49.984;10.672;2023-04-24T02:12:53;2.70;;;1.00;;
30133;SDS011;16946;49.984;10.672;2023-04-24T02:13:23;1.60;;;0.90;;
30133;SDS011;16946;49.984;10.672;2023-04-24T02:13:54;2.80;;;1.00;;
30133;SDS011;16946;49.984;10.672;2023-04-24T02:14:24;1.50;;;1.10;;
30133;SDS011;16946;49.984;10.672;2023-04-24T02:14:55;2.07;;;0.93;;
30133;SDS011;16946;49.984;10.672;2023-04-24T02:15:25;1.13;;;1.00;;
30133;SDS011;16946;49.984;10.672;2023-04-24T02:15:56;1.70;;;0.83;;
30133;SDS011;16946;49.984;10.672;2023-04-24T02:16:28;2.78;;;1.00;;
30133;SDS011;16946;49.984;10.672;2023-04-24T02:17:03;2.00;;;0.95;;
30133;SDS011;16946;49.984;10.672;2023-04-24T02:17:34;1.25;;;1.00;;
30133;SDS011;16946;49.984;10.672;2023-04-24T02:18:06;4.28;;;1.05;;
30133;SDS011;16946;49.984;10.672;2023-04-24T02:18:36;1.50;;;1.00;;
30133;SDS011;16946;49.984;10.672;2023-04-24T02:19:07;1.73;;;0.90;;
30133;SDS011;16946;49.984;10.672;2023-04-24T02:19:38;2.83;;;1.00;;
30133;SDS011;16946;49.984;10.672;2023-04-24T02:20:09;2.08;;;1.10;;
30133;SDS011;16946;49.984;10.672;2023-04-24T02:20:39;1.97;;;0.90;;
30133;SDS011;16946;49.984;10.672;2023-04-24T02:21:10;2.43;;;1.10;;
30133;SDS011;16946;49.984;10.672;2023-04-24T02:21:41;1.47;;;0.90;;
30133;SDS011;16946;49.984;10.672;2023-04-24T02:22:11;2.10;;;1.00;;
30133;SDS011;16946;49.984;10.672;2023-04-24T02:22:42;2.00;;;0.73;;
30133;SDS011;16946;49.984;10.672;2023-04-24T02:23:12;2.57;;;1.00;;
30133;SDS011;16946;49.984;10.672;2023-04-24T02:23:43;1.70;;;1.00;;
30133;SDS011;16946;49.984;10.672;2023-04-24T02:24:14;2.40;;;1.00;;
30133;SDS011;16946;49.984;10.672;2023-04-24T02:24:45;3.17;;;1.10;;
30133;SDS011;16946;49.984;10.672;2023-04-24T02:25:16;1.97;;;1.10;;
30133;SDS011;16946;49.984;10.672;2023-04-24T02:25:46;1.17;;;1.00;;
30133;SDS011;16946;49.984;10.672;2023-04-24T02:26:17;0.93;;;0.90;;
30133;SDS011;16946;49.984;10.672;2023-04-24T02:26:48;1.98;;;1.10;;
30133;SDS011;16946;49.984;10.672;2023-04-24T02:27:19;3.37;;;1.00;;
30133;SDS011;16946;49.984;10.672;2023-04-24T02:27:49;2.33;;;1.13;;
30133;SDS011;16946;49.984;10.672;2023-04-24T02:28:20;1.23;;;0.93;;
30133;SDS011;16946;49.984;10.672;2023-04-24T02:28:50;1.13;;;1.03;;
30133;SDS011;16946;49.984;10.672;2023-04-24T02:29:21;1.27;;;1.02;;
30133;SDS011;16946;49.984;10.672;2023-04-24T02:29:52;1.50;;;1.38;;
30133;SDS011;16946;49.984;10.672;2023-04-24T02:30:23;2.47;;;1.20;;
30133;SDS011;16946;49.984;10.672;2023-04-24T02:30:53;2.23;;;1.40;;
30133;SDS011;16946;49.984;10.672;2023-04-24T02:31:24;2.80;;;1.30;;
30133;SDS011;16946;49.984;10.672;2023-04-24T02:31:54;2.27;;;1.40;;
30133;SDS011;16946;49.984;10.672;2023-04-24T02:32:25;2.97;;;1.30;;
30133;SDS011;16946;49.984;10.672;2023-04-24T02:32:55;1.47;;;1.20;;
30133;SDS011;16946;49.984;10.672;2023-04-24T02:33:26;2.10;;;1.30;;
30133;SDS011;16946;49.984;10.672;2023-04-24T02:33:56;2.93;;;1.30;;
30133;SDS011;16946;49.984;10.672;2023-04-24T02:34:27;1.90;;;1.50;;
30133;SDS011;16946;49.984;10.672;2023-04-24T02:34:57;3.13;;;1.20;;
30133;SDS011;16946;49.984;10.672;2023-04-24T02:35:29;2.58;;;1.15;;
30133;SDS011;16946;49.984;10.672;2023-04-24T02:36:00;2.00;;;1.20;;
30133;SDS011;16946;49.984;10.672;2023-04-24T02:36:30;3.33;;;1.23;;
30133;SDS011;16946;49.984;10.672;2023-04-24T02:37:01;1.97;;;1.30;;
30133;SDS011;16946;49.984;10.672;2023-04-24T02:37:32;1.93;;;1.23;;
30133;SDS011;16946;49.984;10.672;2023-04-24T02:38:03;2.17;;;1.00;;
30133;SDS011;16946;49.984;10.672;2023-04-24T02:38:33;2.10;;;1.30;;
30133;SDS011;16946;49.984;10.672;2023-04-24T02:39:04;2.03;;;1.10;;
30133;SDS011;16946;49.984;10.672;2023-04-24T02:39:35;3.37;;;1.43;;
30133;SDS011;16946;49.984;10.672;2023-04-24T02:40:06;2.33;;;1.30;;
30133;SDS011;16946;49.984;10.672;2023-04-24T02:40:37;2.95;;;1.40;;
30133;SDS011;16946;49.984;10.672;2023-04-24T02:41:08;2.20;;;1.40;;
30133;SDS011;16946;49.984;10.672;2023-04-24T02:41:38;2.03;;;1.30;;
30133;SDS011;16946;49.984;10.672;2023-04-24T02:42:09;1.90;;;1.20;;
30133;SDS011;16946;49.984;10.672;2023-04-24T02:42:39;2.30;;;1.60;;
30133;SDS011;16946;49.984;10.672;2023-04-24T02:43:10;2.03;;;1.17;;
30133;SDS011;16946;49.984;10.672;2023-04-24T02:43:40;3.40;;;1.33;;
30133;SDS011;16946;49.984;10.672;2023-04-24T02:44:11;3.97;;;1.83;;
30133;SDS011;16946;49.984;10.672;2023-04-24T02:44:42;1.73;;;1.20;;
30133;SDS011;16946;49.984;10.672;2023-04-24T02:45:12;3.47;;;1.30;;
30133;SDS011;16946;49.984;10.672;2023-04-24T02:45:43;3.47;;;1.20;;
30133;SDS011;16946;49.984;10.672;2023-04-24T02:46:13;2.47;;;1.30;;
30133;SDS011;16946;49.984;10.672;2023-04-24T02:46:44;1.53;;;1.23;;
30133;SDS011;16946;49.984;10.672;2023-04-24T02:47:15;1.73;;;1.40;;
30133;SDS011;16946;49.984;10.672;2023-04-24T02:47:45;1.90;;;1.40;;
30133;SDS011;16946;49.984;10.672;2023-04-24T02:48:16;1.27;;;1.17;;
30133;SDS011;16946;49.984;10.672;2023-04-24T02:48:47;1.73;;;1.00;;
30133;SDS011;16946;49.984;10.672;2023-04-24T02:49:17;1.53;;;1.20;;
30133;SDS011;16946;49.984;10.672;2023-04-24T02:49:48;3.80;;;1.77;;
30133;SDS011;16946;49.984;10.672;2023-04-24T02:50:18;2.37;;;1.10;;
30133;SDS011;16946;49.984;10.672;2023-04-24T02:50:49;2.80;;;1.23;;
30133;SDS011;16946;49.984;10.672;2023-04-24T02:51:20;2.70;;;1.20;;
30133;SDS011;16946;49.984;10.672;2023-04-24T02:51:51;3.07;;;1.40;;
30133;SDS011;16946;49.984;10.672;2023-04-24T02:52:21;1.43;;;1.30;;
30133;SDS011;16946;49.984;10.672;2023-04-24T02:52:52;2.77;;;1.20;;
30133;SDS011;16946;49.984;10.672;2023-04-24T02:53:23;2.20;;;1.30;;
30133;SDS011;16946;49.984;10.672;2023-04-24T02:53:53;3.40;;;1.25;;
30133;SDS011;16946;49.984;10.672;2023-04-24T02:54:24;1.83;;;0.90;;
30133;SDS011;16946;49.984;10.672;2023-04-24T02:54:55;2.70;;;1.20;;
30133;SDS011;16946;49.984;10.672;2023-04-24T02:55:25;1.77;;;1.20;;
30133;SDS011;16946;49.984;10.672;2023-04-24T02:55:56;1.73;;;1.27;;
30133;SDS011;16946;49.984;10.672;2023-04-24T02:56:27;2.07;;;1.30;;
30133;SDS011;16946;49.984;10.672;2023-04-24T02:56:57;1.73;;;1.10;;
30133;SDS011;16946;49.984;10.672;2023-04-24T02:57:28;2.60;;;1.00;;
30133;SDS011;16946;49.984;10.672;2023-04-24T02:57:58;2.37;;;1.30;;
30133;SDS011;16946;49.984;10.672;2023-04-24T02:58:29;2.67;;;1.20;;
30133;SDS011;16946;49.984;10.672;2023-04-24T02:59:00;1.60;;;1.00;;
30133;SDS011;16946;49.984;10.672;2023-04-24T02:59:30;1.60;;;1.30;;
30133;SDS011;16946;49.984;10.672;2023-04-24T03:00:02;2.17;;;1.40;;
30133;SDS011;16946;49.984;10.672;2023-04-24T03:00:33;2.33;;;1.10;;
30133;SDS011;16946;49.984;10.672;2023-04-24T03:01:04;2.22;;;1.50;;
30133;SDS011;16946;49.984;10.672;2023-04-24T03:01:35;2.37;;;1.30;;
30133;SDS011;16946;49.984;10.672;2023-04-24T03:02:05;1.57;;;1.43;;
30133;SDS011;16946;49.984;10.672;2023-04-24T03:02:36;1.30;;;1.20;;
30133;SDS011;16946;49.984;10.672;2023-04-24T03:03:06;1.50;;;1.40;;
30133;SDS011;16946;49.984;10.672;2023-04-24T03:03:38;2.77;;;1.30;;